Time;durP1;ratioP1;P1;durP2;ratioP2;P2;SDS_P1;SDS_P2;PMS_P1;PMS_P2;Temp;Humidity;BMP_temperature;BMP_pressure;BME280_temperature;BME280_humidity;BME280_pressure;Samples;Min_cycle;Max_cycle;Signal;HPM_P1;HPM_P2
2022/05/24 00:02:03;;;;;;;2.05;1.25;;;19.70;78.50;;;;;;5063576;28;20053;-74
2022/05/24 00:04:30;;;;;;;2.78;1.30;;;19.70;78.40;;;;;;5052992;28;20063;-71
2022/05/24 00:06:58;;;;;;;3.20;1.73;;;19.80;78.00;;;;;;5059702;28;20040;-70
2022/05/24 00:09:26;;;;;;;3.05;1.40;;;19.70;77.80;;;;;;5065144;28;20874;-74
2022/05/24 00:11:53;;;;;;;5.53;1.45;;;19.70;77.80;;;;;;5071837;28;20071;-69
2022/05/24 00:17:02;;;;;;;1.73;1.13;;;19.60;77.50;;;;;;5068718;28;20158;-70
2022/05/24 00:19:29;;;;;;;2.65;1.20;;;19.60;77.40;;;;;;5064258;28;20130;-72
2022/05/24 00:21:56;;;;;;;3.13;1.30;;;19.60;77.20;;;;;;5062852;28;20124;-73
2022/05/24 00:24:23;;;;;;;4.55;1.50;;;19.50;77.50;;;;;;5068699;28;20044;-72
2022/05/24 00:26:51;;;;;;;4.60;1.67;;;19.40;77.20;;;;;;5066915;28;20201;-70
2022/05/24 00:29:18;;;;;;;2.15;1.50;;;19.40;77.40;;;;;;5059031;28;20060;-69
2022/05/24 00:31:45;;;;;;;3.20;1.38;;;19.40;77.10;;;;;;5064612;28;20048;-69
2022/05/24 00:34:12;;;;;;;2.10;1.30;;;19.40;77.20;;;;;;5063845;28;20041;-70
2022/05/24 00:36:39;;;;;;;3.88;1.27;;;19.40;77.50;;;;;;5065700;28;20041;-72
2022/05/24 00:39:06;;;;;;;2.33;1.35;;;19.40;76.90;;;;;;5068226;28;20032;-70
2022/05/24 00:41:39;;;;;;;4.90;1.63;;;19.30;77.00;;;;;;5066783;28;20076;-73
2022/05/24 00:44:13;;;;;;;3.63;1.52;;;19.20;77.20;;;;;;5059748;28;20408;-70
2022/05/24 00:46:45;;;;;;;2.50;1.27;;;19.20;77.40;;;;;;5060423;28;20436;-70
2022/05/24 00:49:16;;;;;;;3.08;1.30;;;19.10;77.40;;;;;;5064952;28;20070;-70
2022/05/24 00:51:47;;;;;;;2.53;1.23;;;19.10;77.50;;;;;;5066058;28;20119;-70
2022/05/24 00:54:14;;;;;;;2.55;1.38;;;19.10;77.60;;;;;;5064108;28;20044;-69
2022/05/24 00:56:53;;;;;;;3.65;1.85;;;19.00;77.80;;;;;;5067088;28;20547;-69
2022/05/24 00:59:31;;;;;;;2.25;1.27;;;19.10;77.50;;;;;;5066830;28;20048;-70
2022/05/24 01:01:59;;;;;;;2.92;1.25;;;19.00;77.70;;;;;;5061450;28;20068;-70
2022/05/24 01:04:27;;;;;;;2.65;1.30;;;18.90;78.00;;;;;;5073032;28;20036;-72
2022/05/24 01:06:54;;;;;;;2.92;1.35;;;18.80;78.20;;;;;;5069614;28;20038;-70
2022/05/24 01:09:24;;;;;;;2.00;1.17;;;18.70;78.40;;;;;;5068458;28;20040;-70
2022/05/24 01:11:55;;;;;;;2.78;1.65;;;18.70;78.50;;;;;;5073860;28;20051;-72
2022/05/24 01:14:26;;;;;;;2.90;1.33;;;18.70;78.60;;;;;;5074573;28;20040;-69
2022/05/24 01:16:57;;;;;;;2.47;1.27;;;18.70;78.70;;;;;;5069870;28;20123;-70
2022/05/24 01:19:35;;;;;;;4.38;1.40;;;18.70;78.80;;;;;;5076544;28;20181;-71
2022/05/24 01:22:14;;;;;;;2.00;1.27;;;18.60;79.00;;;;;;5072889;28;20103;-73
2022/05/24 01:24:47;;;;;;;3.07;1.57;;;18.60;79.10;;;;;;5074934;28;20598;-70
2022/05/24 01:27:15;;;;;;;4.30;1.63;;;18.60;79.10;;;;;;5072544;28;20864;-75
2022/05/24 01:29:42;;;;;;;2.45;1.27;;;18.60;79.20;;;;;;5072354;28;20052;-73
2022/05/24 01:37:38;;;;;;;4.28;1.45;;;18.50;79.60;;;;;;5076087;28;20127;-73
2022/05/24 01:40:07;;;;;;;3.00;1.65;;;18.50;79.70;;;;;;5069999;28;20055;-73
2022/05/24 01:42:36;;;;;;;2.28;1.30;;;18.50;79.80;;;;;;5074428;28;20414;-70
2022/05/24 01:45:08;;;;;;;3.10;1.30;;;18.50;79.70;;;;;;5075321;28;20068;-70
2022/05/24 01:47:36;;;;;;;2.97;1.60;;;18.50;79.70;;;;;;5072573;28;20044;-70
2022/05/24 01:50:07;;;;;;;2.50;1.48;;;18.40;79.70;;;;;;5080482;28;20489;-69
2022/05/24 01:52:37;;;;;;;2.35;1.30;;;18.50;79.60;;;;;;5062685;28;20135;-70
2022/05/24 01:55:07;;;;;;;2.30;1.38;;;18.40;79.70;;;;;;5069983;28;20044;-73
2022/05/24 01:57:39;;;;;;;2.53;1.63;;;18.40;79.70;;;;;;5073778;28;20423;-70
2022/05/24 02:00:09;;;;;;;2.72;1.23;;;18.40;79.60;;;;;;5059272;28;20037;-72
2022/05/24 02:02:42;;;;;;;2.97;1.60;;;18.50;79.30;;;;;;5062938;28;20123;-69
2022/05/24 02:05:09;;;;;;;6.45;1.60;;;18.50;79.10;;;;;;5063523;28;20052;-72
2022/05/24 02:07:36;;;;;;;3.30;1.52;;;18.40;79.10;;;;;;5065427;28;20075;-70
2022/05/24 02:10:04;;;;;;;3.83;1.50;;;18.40;79.00;;;;;;5064715;28;20499;-70
2022/05/24 02:12:35;;;;;;;2.53;1.45;;;18.40;78.90;;;;;;5071099;28;20135;-70
2022/05/24 02:15:08;;;;;;;4.57;2.00;;;18.30;79.00;;;;;;5065436;28;20040;-73
2022/05/24 02:17:41;;;;;;;3.47;1.50;;;18.30;79.10;;;;;;5063883;28;20054;-71
2022/05/24 02:20:12;;;;;;;4.70;1.63;;;18.30;79.10;;;;;;5066728;28;20109;-73
2022/05/24 02:22:41;;;;;;;4.03;1.33;;;18.20;79.20;;;;;;5070070;28;20124;-69
2022/05/24 02:25:16;;;;;;;3.47;1.23;;;18.20;79.20;;;;;;5065893;28;20078;-72
2022/05/24 02:27:46;;;;;;;2.67;1.35;;;18.20;79.20;;;;;;5067665;28;20088;-69
2022/05/24 02:30:18;;;;;;;2.50;1.27;;;18.20;79.10;;;;;;5066581;28;20047;-71
2022/05/24 02:32:45;;;;;;;3.17;1.40;;;18.20;79.10;;;;;;5065177;28;20052;-72
2022/05/24 02:35:13;;;;;;;2.15;1.13;;;18.20;78.90;;;;;;5064524;28;20105;-70
2022/05/24 02:37:40;;;;;;;3.53;1.70;;;18.20;79.00;;;;;;5066429;28;20043;-70
2022/05/24 02:42:53;;;;;;;2.45;1.15;;;18.10;79.20;;;;;;5067284;28;20121;-69
2022/05/24 02:45:22;;;;;;;2.60;1.13;;;18.20;79.40;;;;;;5065125;28;20463;-70
2022/05/24 02:47:50;;;;;;;2.33;1.00;;;18.10;79.30;;;;;;5066581;28;20040;-69
2022/05/24 02:50:17;;;;;;;2.17;1.13;;;18.20;79.20;;;;;;5067040;28;20127;-69
2022/05/24 02:52:44;;;;;;;3.13;1.00;;;18.10;79.10;;;;;;5066729;28;20040;-72
2022/05/24 02:55:13;;;;;;;3.45;1.05;;;18.10;79.00;;;;;;5072948;28;20054;-70
2022/05/24 02:57:41;;;;;;;2.13;1.05;;;18.10;79.20;;;;;;5070140;28;20047;-70
2022/05/24 03:00:14;;;;;;;2.55;0.82;;;18.10;79.00;;;;;;5066159;28;20048;-70
2022/05/24 03:02:43;;;;;;;2.40;1.10;;;18.00;78.60;;;;;;5071003;28;20066;-69
2022/05/24 03:05:12;;;;;;;3.80;1.48;;;18.00;78.30;;;;;;5081615;28;20377;-73
2022/05/24 03:10:24;;;;;;;2.30;1.10;;;17.90;78.30;;;;;;5080622;28;20173;-74
2022/05/24 03:15:39;;;;;;;3.22;1.80;;;17.90;78.60;;;;;;5067850;28;20515;-69
2022/05/24 03:18:08;;;;;;;2.25;1.23;;;17.90;78.70;;;;;;5072324;28;20609;-68
2022/05/24 03:20:35;;;;;;;3.47;1.20;;;17.80;78.80;;;;;;5074708;28;20048;-70
2022/05/24 03:23:03;;;;;;;2.13;1.20;;;17.80;79.10;;;;;;5079004;28;20040;-70
2022/05/24 03:25:31;;;;;;;2.28;1.15;;;17.70;79.20;;;;;;5079366;28;20052;-69
2022/05/24 03:27:59;;;;;;;2.65;1.40;;;17.70;79.30;;;;;;5079343;28;20046;-69
2022/05/24 03:30:27;;;;;;;1.50;0.80;;;17.70;79.20;;;;;;5077943;28;20041;-72
2022/05/24 03:32:54;;;;;;;1.88;1.02;;;17.70;79.30;;;;;;5069939;28;20055;-68
2022/05/24 03:35:23;;;;;;;2.20;1.27;;;17.70;79.30;;;;;;5062421;28;20045;-72
2022/05/24 03:37:50;;;;;;;1.58;0.77;;;17.60;79.30;;;;;;5078216;28;20515;-72
2022/05/24 03:40:17;;;;;;;3.13;0.90;;;17.60;79.40;;;;;;5075916;28;20114;-70
2022/05/24 03:42:47;;;;;;;1.38;0.80;;;17.60;79.30;;;;;;5077935;28;20075;-75
2022/05/24 03:45:14;;;;;;;3.00;1.30;;;17.60;79.30;;;;;;5079895;28;20051;-70
2022/05/24 03:47:41;;;;;;;1.98;0.93;;;17.60;79.30;;;;;;5073719;28;20050;-71
2022/05/24 03:50:10;;;;;;;4.80;1.02;;;17.60;79.30;;;;;;5071867;28;20040;-69
2022/05/24 03:52:38;;;;;;;1.70;0.90;;;17.60;79.30;;;;;;5070209;28;20047;-70
2022/05/24 03:55:06;;;;;;;2.25;1.08;;;17.60;79.50;;;;;;5075479;28;20485;-71
2022/05/24 04:00:20;;;;;;;2.50;0.77;;;17.60;79.50;;;;;;5064239;28;20052;-71
2022/05/24 04:02:47;;;;;;;3.88;1.00;;;17.60;79.60;;;;;;5063014;28;20036;-70
2022/05/24 04:05:15;;;;;;;1.27;0.65;;;17.60;79.60;;;;;;5066963;28;20033;-69
2022/05/24 04:07:43;;;;;;;1.55;0.90;;;17.60;79.60;;;;;;5069740;28;20040;-72
2022/05/24 04:10:12;;;;;;;1.95;0.98;;;17.50;79.60;;;;;;5071798;28;20040;-70
2022/05/24 04:12:39;;;;;;;3.03;1.05;;;17.50;79.60;;;;;;5062664;28;20044;-69
2022/05/24 04:15:07;;;;;;;2.85;0.93;;;17.40;79.80;;;;;;5068411;28;20391;-69
2022/05/24 04:17:34;;;;;;;4.15;0.80;;;17.40;79.80;;;;;;5072243;28;20045;-71
2022/05/24 04:20:01;;;;;;;4.88;0.98;;;17.40;79.90;;;;;;5065222;28;20695;-69
2022/05/24 04:22:29;;;;;;;3.20;1.10;;;17.40;80.20;;;;;;5073458;28;20049;-73
2022/05/24 04:24:58;;;;;;;1.65;0.77;;;17.40;80.20;;;;;;5067655;28;20045;-69
2022/05/24 04:27:25;;;;;;;2.50;0.77;;;17.40;80.40;;;;;;5075683;28;20542;-69
2022/05/24 04:29:53;;;;;;;2.42;1.00;;;17.40;80.30;;;;;;5079661;28;20052;-70
2022/05/24 04:32:21;;;;;;;1.33;0.82;;;17.50;80.30;;;;;;5076637;28;20668;-69
2022/05/24 04:34:49;;;;;;;1.27;0.68;;;17.50;80.40;;;;;;5078625;28;20431;-69
2022/05/24 04:37:16;;;;;;;4.53;1.73;;;17.50;80.60;;;;;;5075483;28;20115;-68
2022/05/24 04:39:43;;;;;;;2.90;1.08;;;17.50;80.10;;;;;;5078856;28;20052;-69
2022/05/24 04:42:21;;;;;;;3.45;0.95;;;17.50;79.80;;;;;;5077129;28;20058;-74
2022/05/24 04:44:50;;;;;;;2.17;0.65;;;17.60;79.70;;;;;;5080155;28;20536;-74
2022/05/24 04:47:19;;;;;;;3.10;1.30;;;17.60;79.50;;;;;;5077648;28;20052;-75
2022/05/24 04:49:49;;;;;;;3.72;1.13;;;17.70;79.60;;;;;;5080179;28;20091;-72
2022/05/24 04:52:18;;;;;;;4.28;1.05;;;17.70;79.50;;;;;;5077879;28;20041;-68
2022/05/24 04:54:45;;;;;;;2.33;1.20;;;17.70;79.60;;;;;;5075168;28;20589;-74
2022/05/24 04:57:14;;;;;;;3.10;1.17;;;17.70;79.60;;;;;;5077699;28;20059;-69
2022/05/24 04:59:41;;;;;;;2.33;1.30;;;17.70;79.60;;;;;;5081719;28;20045;-74
2022/05/24 05:02:09;;;;;;;2.35;1.10;;;17.80;79.50;;;;;;5074503;28;20058;-73
2022/05/24 05:04:36;;;;;;;2.80;1.10;;;17.70;79.50;;;;;;5072070;28;20050;-69
2022/05/24 05:07:04;;;;;;;1.83;1.13;;;17.80;79.40;;;;;;5075973;28;20044;-70
2022/05/24 05:09:35;;;;;;;1.65;0.88;;;17.80;79.70;;;;;;5094487;28;20132;-73
2022/05/24 05:12:03;;;;;;;2.17;1.05;;;17.80;79.80;;;;;;5073162;28;20068;-70
2022/05/24 05:14:33;;;;;;;4.85;1.45;;;17.70;80.10;;;;;;5076771;28;20101;-70
2022/05/24 05:17:02;;;;;;;10.40;1.42;;;17.70;80.10;;;;;;5077464;28;20044;-69
2022/05/24 05:19:28;;;;;;;2.05;1.15;;;17.70;79.90;;;;;;5076055;28;20071;-70
2022/05/24 05:21:56;;;;;;;6.38;1.42;;;17.70;79.90;;;;;;5073334;28;20040;-70
2022/05/24 05:24:23;;;;;;;3.22;1.33;;;17.80;79.70;;;;;;5073836;28;21193;-71
2022/05/24 05:26:50;;;;;;;4.45;1.38;;;17.80;79.60;;;;;;5076685;28;20068;-75
2022/05/24 05:31:16;;;;;;;2.72;1.17;;;17.80;79.60;;;;;;5075291;28;20131;-68
2022/05/24 05:32:06;;;;;;;3.15;1.40;;;17.70;79.70;;;;;;5074539;28;20063;-73
2022/05/24 05:34:33;;;;;;;3.50;1.42;;;17.80;79.60;;;;;;5074774;28;20258;-72
2022/05/24 05:37:04;;;;;;;2.13;1.27;;;17.70;79.80;;;;;;5074855;28;20570;-70
2022/05/24 05:39:32;;;;;;;3.33;1.05;;;17.70;79.90;;;;;;5074875;28;20056;-69
2022/05/24 05:42:01;;;;;;;5.25;1.50;;;17.80;80.10;;;;;;5074388;28;20135;-74
2022/05/24 05:44:29;;;;;;;1.98;1.20;;;17.70;80.30;;;;;;5075498;28;20426;-69
2022/05/24 05:46:56;;;;;;;2.70;1.17;;;17.80;80.40;;;;;;5073783;28;20040;-71
2022/05/24 05:49:25;;;;;;;2.15;1.10;;;17.80;80.40;;;;;;5075100;28;20074;-73
2022/05/24 05:51:52;;;;;;;3.63;1.27;;;17.80;80.10;;;;;;5076494;28;20119;-70
2022/05/24 05:54:21;;;;;;;3.38;1.33;;;17.90;80.00;;;;;;5077964;28;20072;-70
2022/05/24 05:56:48;;;;;;;5.38;1.52;;;17.90;79.80;;;;;;5075983;28;20045;-71
2022/05/24 05:59:15;;;;;;;4.22;1.20;;;18.00;79.90;;;;;;5077829;28;20046;-70
2022/05/24 06:01:43;;;;;;;3.83;1.50;;;18.10;79.70;;;;;;5073336;28;20069;-70
2022/05/24 06:04:10;;;;;;;2.92;1.33;;;18.10;79.90;;;;;;5075724;28;20036;-70
2022/05/24 06:06:45;;;;;;;3.03;1.20;;;18.20;79.90;;;;;;5077160;28;20045;-69
2022/05/24 06:09:13;;;;;;;3.45;1.13;;;18.20;80.00;;;;;;5078093;28;20048;-68
2022/05/24 06:11:40;;;;;;;1.80;1.30;;;18.20;80.10;;;;;;5078840;28;20060;-69
2022/05/24 06:14:08;;;;;;;3.88;1.73;;;18.20;79.70;;;;;;5077393;28;20087;-69
2022/05/24 06:16:35;;;;;;;9.65;3.63;;;18.20;79.30;;;;;;5076762;28;20052;-69
2022/05/24 06:19:03;;;;;;;8.57;3.67;;;18.20;79.10;;;;;;5077942;28;20048;-71
2022/05/24 06:21:33;;;;;;;6.20;3.05;;;18.20;79.00;;;;;;5079020;28;20072;-73
2022/05/24 06:24:03;;;;;;;6.30;3.15;;;18.20;78.80;;;;;;5077754;28;20052;-70
2022/05/24 06:26:30;;;;;;;7.82;2.20;;;18.30;78.50;;;;;;5078115;28;20499;-70
2022/05/24 06:28:57;;;;;;;4.25;1.88;;;18.30;78.40;;;;;;5098003;28;20055;-69
2022/05/24 06:31:24;;;;;;;3.90;1.75;;;18.40;78.40;;;;;;5081433;28;20047;-68
2022/05/24 06:33:51;;;;;;;5.03;2.17;;;18.40;78.50;;;;;;5080098;28;20060;-69
2022/05/24 06:36:19;;;;;;;3.47;1.92;;;18.40;78.40;;;;;;5076926;28;20045;-70
2022/05/24 06:38:46;;;;;;;5.50;2.35;;;18.50;78.50;;;;;;5080415;28;20052;-71
2022/05/24 06:41:14;;;;;;;4.82;1.88;;;18.60;78.20;;;;;;5082381;28;20086;-68
2022/05/24 06:43:41;;;;;;;3.22;1.60;;;18.50;77.60;;;;;;5079212;28;20037;-69
2022/05/24 06:46:08;;;;;;;5.40;1.95;;;18.60;77.70;;;;;;5082950;28;20044;-68
2022/05/24 06:48:36;;;;;;;5.28;1.88;;;18.70;77.50;;;;;;5078429;28;20145;-70
2022/05/24 06:51:10;;;;;;;2.00;1.08;;;18.90;77.10;;;;;;5080140;28;20583;-68
2022/05/24 06:53:37;;;;;;;2.67;1.30;;;19.10;76.90;;;;;;5078925;28;20397;-72
2022/05/24 06:56:05;;;;;;;2.40;1.10;;;19.40;75.30;;;;;;5078795;28;20041;-70
2022/05/24 06:58:34;;;;;;;1.58;0.93;;;19.60;75.20;;;;;;5077888;28;20045;-69
2022/05/24 07:03:47;;;;;;;2.53;1.23;;;20.00;72.90;;;;;;5080175;28;20515;-69
2022/05/24 07:06:15;;;;;;;3.83;1.27;;;20.00;72.00;;;;;;5078600;28;20056;-69
2022/05/24 07:08:43;;;;;;;1.52;0.80;;;19.90;72.20;;;;;;5080434;28;20057;-69
2022/05/24 07:11:11;;;;;;;1.75;0.77;;;19.70;72.80;;;;;;5077907;28;20123;-69
2022/05/24 07:13:39;;;;;;;1.40;0.63;;;19.90;71.50;;;;;;5082613;28;20044;-72
2022/05/24 07:16:07;;;;;;;1.27;0.75;;;19.80;71.40;;;;;;5082090;28;20052;-68
2022/05/24 07:18:34;;;;;;;2.53;1.20;;;19.90;71.80;;;;;;5080684;28;20131;-68
2022/05/24 07:21:02;;;;;;;3.35;0.98;;;20.00;71.80;;;;;;5079082;28;20049;-70
2022/05/24 07:23:29;;;;;;;2.55;0.80;;;19.80;72.70;;;;;;5078856;28;20071;-73
2022/05/24 07:26:09;;;;;;;2.58;0.90;;;19.90;73.00;;;;;;5075181;28;20055;-73
2022/05/24 07:28:36;;;;;;;1.05;0.65;;;19.80;73.40;;;;;;5077732;28;20044;-71
2022/05/24 07:31:04;;;;;;;2.85;0.90;;;19.60;73.70;;;;;;5078240;28;20058;-73
2022/05/24 07:33:32;;;;;;;1.42;0.60;;;19.40;74.50;;;;;;5080116;28;20051;-70
2022/05/24 07:35:59;;;;;;;1.38;0.65;;;19.10;75.50;;;;;;5079051;28;20449;-69
2022/05/24 07:38:26;;;;;;;2.30;0.70;;;18.90;76.50;;;;;;5078704;28;20032;-70
2022/05/24 07:46:26;;;;;;;2.28;1.13;;;18.60;77.70;;;;;;5079799;28;20047;-69
2022/05/24 07:48:53;;;;;;;1.95;0.88;;;18.50;78.20;;;;;;5080082;28;20041;-70
2022/05/24 07:51:20;;;;;;;2.05;0.60;;;18.60;78.20;;;;;;5080883;28;20044;-73
2022/05/24 07:53:48;;;;;;;1.33;0.70;;;18.90;77.90;;;;;;5078269;28;20052;-69
2022/05/24 07:56:18;;;;;;;2.55;0.68;;;19.00;77.10;;;;;;5079981;28;20051;-70
2022/05/24 07:58:45;;;;;;;1.02;0.50;;;19.00;77.30;;;;;;5080251;28;20048;-68
2022/05/24 08:01:14;;;;;;;1.30;0.40;;;19.00;76.60;;;;;;5075026;28;20487;-70
2022/05/24 08:03:43;;;;;;;2.17;0.70;;;18.80;77.10;;;;;;5080196;28;20514;-68
2022/05/24 08:06:10;;;;;;;1.48;0.60;;;18.90;77.00;;;;;;5080044;28;20127;-71
2022/05/24 08:08:38;;;;;;;1.20;0.60;;;18.90;77.10;;;;;;5080768;28;20122;-70
2022/05/24 08:11:06;;;;;;;0.75;0.40;;;19.00;76.70;;;;;;5078815;28;20075;-71
2022/05/24 08:13:34;;;;;;;0.93;0.60;;;19.10;75.70;;;;;;5078905;28;20051;-70
2022/05/24 08:16:01;;;;;;;1.95;0.60;;;19.00;76.00;;;;;;5078592;28;20053;-74
2022/05/24 08:18:28;;;;;;;0.75;0.50;;;18.90;76.30;;;;;;5077784;28;20441;-69
2022/05/24 08:20:58;;;;;;;1.25;0.60;;;18.90;76.70;;;;;;5079713;28;20101;-68
2022/05/24 08:23:27;;;;;;;1.60;0.47;;;18.90;76.50;;;;;;5078820;28;20051;-70
2022/05/24 08:25:55;;;;;;;1.23;0.30;;;19.10;75.60;;;;;;5079166;28;20044;-71
2022/05/24 08:28:22;;;;;;;0.93;0.55;;;19.30;74.60;;;;;;5080019;28;20484;-75
2022/05/24 08:30:50;;;;;;;1.23;0.50;;;19.30;74.10;;;;;;5079921;28;20054;-69
2022/05/24 08:33:17;;;;;;;0.95;0.45;;;19.50;74.00;;;;;;5080595;28;20047;-69
2022/05/24 08:35:46;;;;;;;1.15;0.40;;;19.80;71.60;;;;;;5078296;28;20507;-70
2022/05/24 08:38:15;;;;;;;2.60;0.40;;;19.80;70.80;;;;;;5074953;28;20036;-70
2022/05/24 08:40:44;;;;;;;1.67;0.63;;;19.60;70.70;;;;;;5076053;28;20491;-70
2022/05/24 08:48:22;;;;;;;1.92;0.50;;;19.40;72.00;;;;;;5060566;28;20121;-70
2022/05/24 08:49:32;;;;;;;0.95;0.40;;;19.20;73.00;;;;;;5078504;28;20127;-73
2022/05/24 08:52:02;;;;;;;0.52;0.30;;;19.10;72.50;;;;;;5076734;28;20125;-73
2022/05/24 08:54:37;;;;;;;0.68;0.43;;;18.90;72.30;;;;;;5077056;28;20063;-73
2022/05/24 08:57:08;;;;;;;0.68;0.40;;;18.80;72.60;;;;;;5076717;28;20071;-70
2022/05/24 08:59:38;;;;;;;1.90;0.57;;;19.00;73.50;;;;;;5093785;28;20087;-69
2022/05/24 09:02:07;;;;;;;1.33;0.50;;;19.00;72.00;;;;;;5070702;28;20056;-69
2022/05/24 09:04:35;;;;;;;0.17;0.17;;;19.10;70.40;;;;;;5076565;28;20398;-72
2022/05/24 09:07:08;;;;;;;0.40;0.30;;;18.90;71.00;;;;;;5076984;28;20559;-70
2022/05/24 09:09:45;;;;;;;0.90;0.40;;;18.90;70.30;;;;;;5077152;28;20499;-74
2022/05/24 09:12:30;;;;;;;0.13;0.13;;;18.80;69.70;;;;;;5075418;28;20039;-69
2022/05/24 09:15:09;;;;;;;0.50;0.30;;;18.70;70.10;;;;;;5079937;28;20103;-73
2022/05/24 09:17:48;;;;;;;0.63;0.30;;;18.80;69.70;;;;;;5080440;28;20132;-74
2022/05/24 09:20:33;;;;;;;0.32;0.30;;;18.80;69.50;;;;;;5078231;28;20535;-69
2022/05/24 09:23:06;;;;;;;4.32;0.30;;;18.80;69.80;;;;;;5077382;28;20986;-68
2022/05/24 09:25:34;;;;;;;2.10;0.50;;;18.80;70.30;;;;;;5076933;28;20502;-70
2022/05/24 09:28:02;;;;;;;5.88;2.38;;;19.00;71.00;;;;;;5074889;28;20511;-70
2022/05/24 09:30:41;;;;;;;3.70;1.38;;;19.30;70.40;;;;;;5074428;28;20131;-72
2022/05/24 09:33:23;;;;;;;7.18;3.50;;;19.60;69.90;;;;;;5091746;28;20731;-68
2022/05/24 09:36:00;;;;;;;8.15;4.07;;;19.60;68.90;;;;;;5077056;28;20082;-71
2022/05/24 09:38:34;;;;;;;7.03;2.95;;;19.70;68.70;;;;;;5078208;28;20060;-69
2022/05/24 09:41:12;;;;;;;7.25;2.47;;;19.90;69.80;;;;;;5076815;28;20051;-70
2022/05/24 09:43:40;;;;;;;6.20;2.55;;;20.10;69.40;;;;;;5079028;28;20455;-70
2022/05/24 09:46:11;;;;;;;8.45;3.05;;;20.20;68.40;;;;;;5076003;28;20495;-70
2022/05/24 09:48:56;;;;;;;8.60;3.20;;;20.20;67.00;;;;;;5078969;28;20518;-69
2022/05/24 09:51:28;;;;;;;6.22;2.65;;;20.10;66.90;;;;;;5078237;28;20052;-72
2022/05/24 09:53:56;;;;;;;9.35;3.78;;;19.90;66.90;;;;;;5078677;28;20047;-70
2022/05/24 09:56:29;;;;;;;6.10;2.78;;;19.80;66.80;;;;;;5074312;28;20044;-69
2022/05/24 09:58:59;;;;;;;9.93;4.55;;;19.70;67.30;;;;;;5079794;28;20127;-74
2022/05/24 10:01:36;;;;;;;7.53;2.50;;;19.60;67.60;;;;;;5076893;28;20072;-70
2022/05/24 10:04:17;;;;;;;11.32;4.60;;;19.70;68.20;;;;;;5074559;28;20037;-70
2022/05/24 10:06:53;;;;;;;12.55;4.57;;;19.80;67.90;;;;;;5081425;28;20058;-70
2022/05/24 10:09:54;;;;;;;5.80;2.35;;;20.00;68.30;;;;;;5081657;28;20043;-69
2022/05/24 10:12:36;;;;;;;7.70;3.85;;;20.30;67.10;;;;;;5078687;28;20453;-70
2022/05/24 10:15:22;;;;;;;11.60;4.70;;;20.30;64.70;;;;;;5078845;28;20499;-70
2022/05/24 10:18:08;;;;;;;5.68;2.20;;;20.30;63.90;;;;;;5080866;28;20051;-72
2022/05/24 10:20:40;;;;;;;4.00;1.05;;;20.30;63.70;;;;;;5079328;28;20047;-74
2022/05/24 10:23:26;;;;;;;4.70;1.75;;;20.20;63.70;;;;;;5079254;28;20052;-68
2022/05/24 10:26:01;;;;;;;2.65;1.15;;;20.10;62.90;;;;;;5079170;28;20126;-71
2022/05/24 10:28:45;;;;;;;4.63;1.45;;;19.90;63.50;;;;;;5079507;28;20396;-68
2022/05/24 10:31:29;;;;;;;2.78;1.10;;;20.00;64.70;;;;;;5078596;28;20067;-69
2022/05/24 10:38:17;;;;;;;2.20;0.77;;;20.60;63.10;;;;;;5078619;28;20042;-70
2022/05/24 10:40:17;;;;;;;4.13;0.98;;;20.80;62.10;;;;;;5074245;28;20048;-70
2022/05/24 10:43:06;;;;;;;2.05;0.65;;;20.70;61.30;;;;;;5079832;28;20423;-73
2022/05/24 10:45:52;;;;;;;2.40;0.90;;;20.50;60.80;;;;;;5078030;28;20086;-72
2022/05/24 10:48:30;;;;;;;4.53;1.70;;;20.30;61.30;;;;;;5077942;28;20044;-69
2022/05/24 10:51:03;;;;;;;2.63;0.90;;;20.20;61.70;;;;;;5078747;28;20048;-69
2022/05/24 10:53:39;;;;;;;7.38;1.58;;;20.20;62.20;;;;;;5080609;28;20511;-73
2022/05/24 10:56:15;;;;;;;2.63;1.13;;;20.10;62.70;;;;;;5081441;28;20507;-69
2022/05/24 10:58:43;;;;;;;5.30;1.15;;;20.20;63.70;;;;;;5074006;28;20119;-69
2022/05/24 11:01:24;;;;;;;4.63;1.20;;;20.40;63.50;;;;;;5076195;28;20499;-73
2022/05/24 11:03:55;;;;;;;2.35;0.73;;;20.80;61.80;;;;;;5079115;28;20072;-73
2022/05/24 11:06:29;;;;;;;2.08;0.77;;;20.90;61.50;;;;;;5079785;28;20596;-72
2022/05/24 11:09:03;;;;;;;1.10;0.50;;;21.00;60.70;;;;;;5077922;28;20032;-72
2022/05/24 11:11:36;;;;;;;0.52;0.20;;;20.80;59.60;;;;;;5080490;28;20048;-69
2022/05/24 11:14:12;;;;;;;0.50;0.20;;;20.70;59.40;;;;;;5081113;28;20044;-69
2022/05/24 11:16:45;;;;;;;0.85;0.20;;;20.60;57.60;;;;;;5080221;28;20043;-70
2022/05/24 11:19:15;;;;;;;0.43;0.30;;;20.40;56.80;;;;;;5080225;28;20044;-68
2022/05/24 11:21:49;;;;;;;0.60;0.13;;;20.20;57.30;;;;;;5078673;28;20123;-68
2022/05/24 11:24:25;;;;;;;0.70;0.30;;;20.00;57.20;;;;;;5078827;28;20121;-73
2022/05/24 11:26:56;;;;;;;0.40;0.20;;;19.90;58.00;;;;;;5080158;28;20045;-68
2022/05/24 11:29:29;;;;;;;2.67;0.30;;;19.90;58.70;;;;;;5080079;28;20529;-72
2022/05/24 11:32:03;;;;;;;2.15;0.52;;;19.90;58.70;;;;;;5081470;28;20043;-69
2022/05/24 11:34:33;;;;;;;0.30;0.20;;;20.10;59.40;;;;;;5078323;28;20068;-69
2022/05/24 11:37:13;;;;;;;0.82;0.25;;;20.20;60.00;;;;;;5078503;28;20127;-72
2022/05/24 11:39:42;;;;;;;0.85;0.20;;;20.40;59.00;;;;;;5081695;28;20040;-69
2022/05/24 11:42:44;;;;;;;0.70;0.32;;;20.60;58.50;;;;;;5080024;28;20458;-70
2022/05/24 11:45:56;;;;;;;0.65;0.30;;;20.70;58.40;;;;;;5067709;28;20530;-69
2022/05/24 11:48:45;;;;;;;0.75;0.30;;;20.90;58.60;;;;;;5067417;28;20071;-72
2022/05/24 11:51:33;;;;;;;1.83;0.55;;;21.10;58.30;;;;;;5081357;28;20124;-70
2022/05/24 11:54:01;;;;;;;3.13;0.40;;;21.10;58.10;;;;;;5079653;28;20045;-69
2022/05/24 11:56:29;;;;;;;2.38;0.32;;;20.90;56.30;;;;;;5078134;28;20583;-71
2022/05/24 11:58:59;;;;;;;0.30;0.20;;;20.80;56.00;;;;;;5077774;28;20036;-70
2022/05/24 12:01:42;;;;;;;2.67;0.20;;;20.90;57.40;;;;;;5074834;28;20542;-71
2022/05/24 12:10:49;;;;;;;0.90;0.30;;;21.10;56.40;;;;;;5079662;28;20514;-69
2022/05/24 12:13:31;;;;;;;0.75;0.50;;;21.10;56.90;;;;;;5078221;28;20068;-71
2022/05/24 12:16:01;;;;;;;1.00;0.40;;;21.10;57.20;;;;;;5074085;28;20048;-70
2022/05/24 12:18:45;;;;;;;3.15;0.43;;;21.20;57.20;;;;;;5076255;28;20561;-70
2022/05/24 12:21:45;;;;;;;3.30;0.75;;;21.30;56.50;;;;;;5075816;28;20388;-71
2022/05/24 12:24:33;;;;;;;2.28;0.40;;;21.20;55.80;;;;;;5078245;28;20124;-70
2022/05/24 12:27:15;;;;;;;1.63;0.50;;;21.30;55.10;;;;;;5078628;28;20045;-69
2022/05/24 12:29:43;;;;;;;1.15;0.50;;;21.20;55.10;;;;;;5078145;28;20040;-69
2022/05/24 12:32:10;;;;;;;1.63;0.45;;;21.20;54.80;;;;;;5077921;28;20123;-69
2022/05/24 12:34:37;;;;;;;3.65;0.47;;;21.10;54.30;;;;;;5073203;28;20551;-70
2022/05/24 12:37:17;;;;;;;0.90;0.30;;;21.10;55.50;;;;;;5077596;28;20488;-70
2022/05/24 12:40:08;;;;;;;0.75;0.38;;;21.10;55.70;;;;;;5080246;28;20042;-74
2022/05/24 12:42:41;;;;;;;1.05;0.40;;;21.40;55.10;;;;;;5077639;28;20468;-69
2022/05/24 12:45:09;;;;;;;1.80;0.50;;;21.60;54.10;;;;;;5080522;28;20053;-70
2022/05/24 12:47:36;;;;;;;1.23;0.40;;;21.60;53.50;;;;;;5078546;28;20068;-71
2022/05/24 12:50:03;;;;;;;1.98;0.35;;;21.60;53.30;;;;;;5079868;28;20144;-70
2022/05/24 12:52:33;;;;;;;0.93;0.40;;;21.50;53.50;;;;;;5079152;28;20123;-74
2022/05/24 12:55:01;;;;;;;1.48;0.40;;;21.40;53.70;;;;;;5079674;28;20045;-69
2022/05/24 12:57:32;;;;;;;3.00;0.50;;;21.50;54.20;;;;;;5080046;28;20518;-74
2022/05/24 13:00:01;;;;;;;0.68;0.35;;;21.40;54.00;;;;;;5078180;28;20127;-69
2022/05/24 13:02:35;;;;;;;;;;;21.40;54.60;;;;;;5075386;28;20541;-70
2022/05/24 13:05:12;;;;;;;1.67;0.40;;;21.50;54.90;;;;;;5074333;28;19924;-74
2022/05/24 13:07:42;;;;;;;0.30;0.22;;;21.50;53.60;;;;;;5078457;28;20098;-70
2022/05/24 13:10:27;;;;;;;1.60;0.30;;;21.50;53.80;;;;;;5077864;28;20040;-70
2022/05/24 13:12:59;;;;;;;0.65;0.30;;;21.60;54.50;;;;;;5077499;28;20438;-71
2022/05/24 13:15:31;;;;;;;0.77;0.52;;;21.60;54.10;;;;;;5078052;28;20458;-69
2022/05/24 13:18:02;;;;;;;2.72;0.95;;;21.70;53.80;;;;;;5072791;28;20049;-71
2022/05/24 13:20:33;;;;;;;1.25;0.60;;;21.60;53.30;;;;;;5076867;28;20040;-73
2022/05/24 13:23:04;;;;;;;0.88;0.25;;;21.50;53.00;;;;;;5074641;28;20130;-71
2022/05/24 13:25:47;;;;;;;0.38;0.25;;;21.60;53.80;;;;;;5077962;28;20090;-69
2022/05/24 13:28:32;;;;;;;3.88;0.57;;;21.90;52.90;;;;;;5077730;28;20470;-72
2022/05/24 13:33:52;;;;;;;1.48;0.22;;;21.90;52.60;;;;;;5075177;28;20040;-73
2022/05/24 13:36:25;;;;;;;0.65;0.30;;;21.90;52.30;;;;;;5075424;28;20128;-69
2022/05/24 13:39:08;;;;;;;1.05;0.20;;;21.90;52.00;;;;;;5077264;28;20094;-71
2022/05/24 13:41:38;;;;;;;1.55;0.50;;;22.00;52.10;;;;;;5074627;28;20056;-73
2022/05/24 13:44:19;;;;;;;0.30;0.30;;;22.00;51.30;;;;;;5076613;28;20079;-74
2022/05/24 13:46:54;;;;;;;;;;;21.90;51.10;;;;;;5077043;28;20052;-71
2022/05/24 13:49:30;;;;;;;2.30;0.10;;;21.90;51.30;;;;;;5076998;28;19924;-70
2022/05/24 13:52:27;;;;;;;3.08;0.85;;;22.10;51.70;;;;;;5074597;28;20070;-69
2022/05/24 13:55:14;;;;;;;1.02;0.30;;;22.10;50.70;;;;;;5076274;28;20129;-69